Time;durP1;ratioP1;P1;durP2;ratioP2;P2;SDS_P1;SDS_P2;PMS_P1;PMS_P2;Temp;Humidity;BMP_temperature;BMP_pressure;BME280_temperature;BME280_humidity;BME280_pressure;Samples;Min_cycle;Max_cycle;Signal;HPM_P1;HPM_P2
2021/03/07 12:57:08;;;;;;;7.35;5.45;;;;;;;;;;5089879;27;20808;-78
2021/03/07 12:59:34;;;;;;;8.20;5.70;;;;;;;;;;5089283;28;20029;-77
2021/03/07 13:02:00;;;;;;;7.82;5.70;;;;;;;;;;5085515;28;20039;-78
2021/03/07 13:04:26;;;;;;;7.45;6.18;;;;;;;;;;5088606;28;20020;-78
2021/03/07 13:06:52;;;;;;;8.57;6.15;;;;;;;;;;5074955;28;20025;-78
2021/03/07 13:09:18;;;;;;;5.97;5.15;;;;;;;;;;5078724;28;20051;-78
2021/03/07 13:11:44;;;;;;;9.05;5.90;;;;;;;;;;5089170;28;20033;-78
2021/03/07 13:14:10;;;;;;;8.48;6.65;;;;;;;;;;5089424;28;20040;-78
2021/03/07 13:16:36;;;;;;;8.52;6.50;;;;;;;;;;5089352;28;20047;-78
2021/03/07 13:19:03;;;;;;;9.55;6.40;;;;;;;;;;5071430;28;20096;-78
2021/03/07 13:21:29;;;;;;;8.70;6.38;;;;;;;;;;5085635;28;20150;-78
2021/03/07 13:23:56;;;;;;;8.40;5.75;;;;;;;;;;5068849;28;20028;-78
2021/03/07 13:26:23;;;;;;;8.05;6.40;;;;;;;;;;5074962;28;20032;-77
2021/03/07 13:28:49;;;;;;;8.25;6.10;;;;;;;;;;5089558;28;20039;-78
2021/03/07 13:31:15;;;;;;;12.25;8.63;;;;;;;;;;5088099;28;20115;-77
2021/03/07 13:33:42;;;;;;;9.85;6.60;;;;;;;;;;5084972;28;20052;-77
2021/03/07 13:36:08;;;;;;;9.27;6.75;;;;;;;;;;5068762;28;20039;-77
2021/03/07 13:38:34;;;;;;;9.07;6.53;;;;;;;;;;5087459;28;20021;-76
2021/03/07 13:41:00;;;;;;;9.18;6.45;;;;;;;;;;5088482;28;20087;-77
2021/03/07 13:43:26;;;;;;;9.85;6.78;;;;;;;;;;5087142;28;20481;-76
2021/03/07 13:45:52;;;;;;;7.97;6.22;;;;;;;;;;5089022;28;20067;-77
2021/03/07 13:48:18;;;;;;;9.85;7.50;;;;;;;;;;5070541;28;20028;-76
2021/03/07 13:50:44;;;;;;;8.50;6.55;;;;;;;;;;5082018;28;20469;-77
2021/03/07 13:53:11;;;;;;;8.75;6.88;;;;;;;;;;5068735;28;20418;-76
2021/03/07 13:55:37;;;;;;;8.57;6.75;;;;;;;;;;5088995;28;20500;-77
2021/03/07 13:58:03;;;;;;;9.43;7.00;;;;;;;;;;5087369;28;20088;-77
2021/03/07 14:00:29;;;;;;;9.10;6.38;;;;;;;;;;5088340;28;20481;-77
2021/03/07 14:02:55;;;;;;;8.27;6.13;;;;;;;;;;5087794;28;20069;-77
2021/03/07 14:05:22;;;;;;;8.57;6.10;;;;;;;;;;5088728;28;20031;-77
2021/03/07 14:07:49;;;;;;;9.70;7.30;;;;;;;;;;5077157;28;20032;-77
2021/03/07 14:10:16;;;;;;;9.57;7.60;;;;;;;;;;5074234;28;20050;-77
2021/03/07 14:12:42;;;;;;;9.30;6.80;;;;;;;;;;5074892;28;20551;-76
2021/03/07 14:15:10;;;;;;;9.00;6.93;;;;;;;;;;5074968;28;20064;-77
2021/03/07 14:17:36;;;;;;;10.05;7.10;;;;;;;;;;5074024;28;20056;-77
2021/03/07 14:20:03;;;;;;;11.38;7.35;;;;;;;;;;5073787;28;20078;-77
2021/03/07 14:22:29;;;;;;;8.75;7.03;;;;;;;;;;5073622;28;20021;-77
2021/03/07 14:24:55;;;;;;;12.45;8.80;;;;;;;;;;5073076;28;20031;-77
2021/03/07 14:27:21;;;;;;;9.35;6.75;;;;;;;;;;5074341;28;20027;-77
2021/03/07 14:29:48;;;;;;;8.80;6.68;;;;;;;;;;5074404;28;20059;-77
2021/03/07 14:32:14;;;;;;;9.05;7.03;;;;;;;;;;5072569;28;20029;-76
2021/03/07 14:34:40;;;;;;;9.80;7.13;;;;;;;;;;5075023;28;20486;-77
2021/03/07 14:37:06;;;;;;;9.40;6.55;;;;;;;;;;5073005;28;20062;-77
2021/03/07 14:39:32;;;;;;;10.15;7.68;;;;;;;;;;5072087;28;20032;-77
2021/03/07 14:41:58;;;;;;;10.68;7.45;;;;;;;;;;5073788;28;20033;-77
2021/03/07 14:44:25;;;;;;;11.75;7.18;;;;;;;;;;5073830;28;20039;-78
2021/03/07 14:46:51;;;;;;;11.50;7.35;;;;;;;;;;5074684;28;20031;-77
2021/03/07 14:49:17;;;;;;;9.35;7.35;;;;;;;;;;5058273;28;20044;-77
2021/03/07 14:51:43;;;;;;;10.57;7.25;;;;;;;;;;5052304;28;20036;-77
2021/03/07 14:54:10;;;;;;;11.18;7.68;;;;;;;;;;5052928;28;20020;-77
2021/03/07 14:56:36;;;;;;;11.07;7.55;;;;;;;;;;5063772;28;20032;-77
2021/03/07 14:59:02;;;;;;;9.70;6.90;;;;;;;;;;5074012;28;20074;-77
2021/03/07 15:01:28;;;;;;;11.23;7.10;;;;;;;;;;5073424;28;20074;-77
2021/03/07 15:03:54;;;;;;;8.13;6.30;;;;;;;;;;5073875;28;20396;-77
2021/03/07 15:06:21;;;;;;;9.35;6.88;;;;;;;;;;5074017;28;20370;-77
2021/03/07 15:08:48;;;;;;;10.35;7.22;;;;;;;;;;5074410;28;20103;-77
2021/03/07 15:11:14;;;;;;;9.95;7.40;;;19.10;48.50;;;;;;5074498;28;20069;-77
2021/03/07 15:13:40;;;;;;;9.05;6.80;;;18.10;48.80;;;;;;5070996;28;20101;-77
2021/03/07 15:16:06;;;;;;;8.80;6.88;;;18.50;49.00;;;;;;5053492;28;20033;-76
2021/03/07 15:18:31;;;;;;;7.75;6.65;;;18.60;47.10;;;;;;5064413;28;20104;-76
2021/03/07 15:20:57;;;;;;;8.63;6.45;;;19.00;46.30;;;;;;5055364;28;20113;-77
2021/03/07 15:23:23;;;;;;;10.57;6.97;;;18.70;47.50;;;;;;5053293;28;20025;-77
2021/03/07 15:25:49;;;;;;;8.18;6.47;;;18.70;47.70;;;;;;5071222;28;20539;-77
2021/03/07 15:28:15;;;;;;;9.52;6.97;;;18.80;47.50;;;;;;5074199;28;20044;-77
2021/03/07 15:30:40;;;;;;;8.80;6.65;;;19.20;46.80;;;;;;5040293;28;20033;-77
2021/03/07 15:33:06;;;;;;;11.43;7.95;;;19.40;47.10;;;;;;5053337;28;20124;-77
2021/03/07 15:35:32;;;;;;;8.88;6.93;;;19.40;46.20;;;;;;5067946;28;20111;-77
2021/03/07 15:37:58;;;;;;;8.95;6.95;;;18.80;48.50;;;;;;5070128;28;20481;-77
2021/03/07 15:40:24;;;;;;;10.30;7.97;;;18.70;47.50;;;;;;5040265;28;20553;-78
2021/03/07 15:42:50;;;;;;;7.90;6.55;;;19.40;46.90;;;;;;5060043;28;20120;-77
2021/03/07 15:45:15;;;;;;;8.43;7.13;;;19.90;46.00;;;;;;5060443;28;20048;-77
2021/03/07 15:47:41;;;;;;;7.10;5.88;;;19.80;45.70;;;;;;5053434;28;20032;-77
2021/03/07 15:50:08;;;;;;;11.15;7.80;;;19.70;46.10;;;;;;5043299;28;20440;-77
2021/03/07 15:52:33;;;;;;;8.27;6.60;;;19.30;46.20;;;;;;5052829;28;20817;-77
2021/03/07 15:54:59;;;;;;;8.13;6.60;;;19.10;45.70;;;;;;5063544;28;20962;-77
2021/03/07 15:57:25;;;;;;;10.13;7.38;;;19.20;47.10;;;;;;5073323;28;20078;-77
2021/03/07 15:59:50;;;;;;;9.27;7.20;;;19.40;46.00;;;;;;5046224;28;20104;-77
2021/03/07 16:02:16;;;;;;;8.85;6.57;;;19.50;45.70;;;;;;5051900;28;20082;-77
2021/03/07 16:04:42;;;;;;;9.25;6.65;;;19.10;45.50;;;;;;5053494;28;20110;-77
2021/03/07 16:07:07;;;;;;;9.05;6.97;;;19.00;45.80;;;;;;5052051;28;20108;-77
2021/03/07 16:09:33;;;;;;;9.13;7.38;;;19.20;46.70;;;;;;5053224;28;20021;-78
2021/03/07 16:11:59;;;;;;;10.40;7.63;;;19.10;45.60;;;;;;5051054;28;20083;-77
2021/03/07 16:14:25;;;;;;;9.45;7.57;;;18.40;46.60;;;;;;5057267;28;20020;-77
2021/03/07 16:16:50;;;;;;;10.93;7.68;;;17.90;47.40;;;;;;5072324;28;20753;-78
2021/03/07 16:19:16;;;;;;;8.88;7.22;;;17.90;48.10;;;;;;5072795;28;20028;-78
2021/03/07 16:21:42;;;;;;;9.13;7.18;;;17.70;48.20;;;;;;5072224;28;20033;-78
2021/03/07 16:24:09;;;;;;;8.93;7.10;;;17.80;48.50;;;;;;5072683;28;20021;-78
2021/03/07 16:26:34;;;;;;;9.15;6.95;;;17.60;48.40;;;;;;5054872;28;20037;-78
2021/03/07 16:29:00;;;;;;;9.63;6.88;;;17.30;48.80;;;;;;5072554;28;20035;-78
2021/03/07 16:31:26;;;;;;;11.00;7.53;;;17.00;49.20;;;;;;5071046;28;20028;-78
2021/03/07 16:33:52;;;;;;;9.70;7.40;;;16.70;51.00;;;;;;5072961;28;20108;-78
2021/03/07 16:36:17;;;;;;;12.57;7.53;;;16.60;50.30;;;;;;5062450;28;20036;-78
2021/03/07 16:38:43;;;;;;;10.80;7.82;;;16.20;50.10;;;;;;5052972;28;20060;-78
2021/03/07 16:41:08;;;;;;;9.25;7.00;;;15.90;51.00;;;;;;5051583;28;20482;-78
2021/03/07 16:43:34;;;;;;;11.68;8.80;;;15.50;51.30;;;;;;5054139;28;20013;-77
2021/03/07 16:46:00;;;;;;;9.82;7.68;;;15.40;52.30;;;;;;5056332;28;20120;-77
2021/03/07 16:48:25;;;;;;;9.60;7.28;;;14.80;52.70;;;;;;5073017;28;20037;-78
2021/03/07 16:50:51;;;;;;;10.57;7.40;;;14.40;53.50;;;;;;5071914;28;20024;-77
2021/03/07 16:53:17;;;;;;;14.20;12.73;;;13.90;53.70;;;;;;5071430;28;20040;-77
2021/03/07 16:55:43;;;;;;;11.20;8.30;;;13.50;55.80;;;;;;5070061;28;20123;-77
2021/03/07 16:58:09;;;;;;;10.15;7.75;;;14.00;56.10;;;;;;5070898;28;20024;-77
2021/03/07 17:00:34;;;;;;;11.57;7.65;;;12.80;57.20;;;;;;5067942;28;20405;-76
2021/03/07 17:03:00;;;;;;;12.10;9.25;;;12.40;58.60;;;;;;5068585;28;20028;-76
2021/03/07 17:05:26;;;;;;;17.05;10.23;;;12.00;59.30;;;;;;5054386;28;20510;-76
2021/03/07 17:07:51;;;;;;;11.90;8.75;;;11.50;61.20;;;;;;5049433;28;20033;-76
2021/03/07 17:10:17;;;;;;;12.90;9.80;;;10.70;62.80;;;;;;5051260;28;20100;-76
2021/03/07 17:12:43;;;;;;;15.93;10.27;;;;;;;;;;5051160;28;20035;-76
2021/03/07 17:15:10;;;;;;;15.43;11.45;;;;;;;;;;5049698;28;20032;-77
2021/03/07 17:17:37;;;;;;;16.92;10.07;;;;;;;;;;5061754;28;20036;-77
2021/03/07 17:20:04;;;;;;;15.30;11.50;;;;;;;;;;5069757;28;20036;-76
2021/03/07 17:22:30;;;;;;;13.23;8.85;;;;;;;;;;5070121;28;20031;-76
2021/03/07 17:24:56;;;;;;;16.42;9.27;;;;;;;;;;5070754;28;20024;-76
2021/03/07 17:27:22;;;;;;;15.90;8.65;;;;;;;;;;5070702;28;20473;-76
2021/03/07 17:29:48;;;;;;;15.10;8.45;;;;;;;;;;5070391;28;20520;-76
2021/03/07 17:32:14;;;;;;;13.52;8.18;;;;;;;;;;5069840;28;20036;-76
2021/03/07 17:34:40;;;;;;;17.95;9.55;;;;;;;;;;5070450;28;20054;-76
2021/03/07 17:37:06;;;;;;;23.05;12.82;;;;;;;;;;5069333;28;20485;-76
2021/03/07 17:39:32;;;;;;;20.63;13.38;;;;;;;;;;5069466;28;20067;-77
2021/03/07 17:41:58;;;;;;;25.60;15.80;;;;;;;;;;5070475;28;20025;-76
2021/03/07 17:44:25;;;;;;;14.63;10.32;;;;;;;;;;5073487;28;20031;-76
2021/03/07 17:46:51;;;;;;;16.75;9.30;;;;;;;;;;5074055;28;20056;-77
2021/03/07 17:49:18;;;;;;;34.28;17.42;;;;;;;;;;5067014;28;20402;-76
2021/03/07 17:51:44;;;;;;;36.70;17.83;;;;;;;;;;5053439;28;20208;-76
2021/03/07 17:54:10;;;;;;;24.27;12.70;;;;;;;;;;5053873;28;20375;-76
2021/03/07 17:56:36;;;;;;;24.67;13.07;;;;;;;;;;5055000;28;20025;-76
2021/03/07 17:59:02;;;;;;;22.83;11.95;;;;;;;;;;5075931;28;20025;-76
2021/03/07 18:01:28;;;;;;;23.25;12.77;;;;;;;;;;5061400;28;20036;-77
2021/03/07 18:03:54;;;;;;;23.98;12.32;;;;;;;;;;5062367;28;20123;-77
2021/03/07 18:06:20;;;;;;;22.58;12.40;;;;;;;;;;5077050;28;20075;-77
2021/03/07 18:08:46;;;;;;;25.35;13.02;;;;;;;;;;5075824;28;20020;-77
2021/03/07 18:11:13;;;;;;;26.60;15.57;;;;;;;;;;5075692;28;20033;-77
2021/03/07 18:13:39;;;;;;;29.00;14.93;;;;;;;;;;5075653;28;20497;-77
2021/03/07 18:16:05;;;;;;;27.08;16.10;;;;;;;;;;5074321;28;20037;-76
2021/03/07 18:18:31;;;;;;;25.73;16.73;;;;;;;;;;5074311;28;20039;-76
2021/03/07 18:20:58;;;;;;;26.55;15.85;;;;;;;;;;5068322;28;20401;-76
2021/03/07 18:23:24;;;;;;;25.00;17.15;;;;;;;;;;5069258;28;20043;-76
2021/03/07 18:25:51;;;;;;;29.63;16.17;;;;;;;;;;5074169;28;20028;-76
2021/03/07 18:28:17;;;;;;;26.80;16.95;;;;;;;;;;5076568;28;20024;-76
2021/03/07 18:30:43;;;;;;;28.63;18.70;;;;;;;;;;5074553;28;20041;-76
2021/03/07 18:33:09;;;;;;;29.95;18.23;;;;;;;;;;5074945;28;20482;-77
2021/03/07 18:35:35;;;;;;;21.58;14.68;;;;;;;;;;5056087;28;20090;-76
2021/03/07 18:38:02;;;;;;;32.13;17.83;;;;;;;;;;5064814;28;20106;-77
2021/03/07 18:40:28;;;;;;;23.25;15.98;;;;;;;;;;5053946;28;20091;-77
2021/03/07 18:42:54;;;;;;;31.80;17.90;;;;;;;;;;5065255;28;20473;-76
2021/03/07 18:45:20;;;;;;;27.55;16.45;;;;;;;;;;5073640;28;20039;-76
2021/03/07 18:47:46;;;;;;;25.70;14.82;;;;;;;;;;5078575;28;20036;-77
2021/03/07 18:50:12;;;;;;;25.90;15.35;;;;;;;;;;5094933;28;20028;-77
2021/03/07 18:52:38;;;;;;;26.25;14.98;;;;;;;;;;5096529;28;20024;-78
